sensor_id;sensor_type;location;lat;lon;timestamp;P1;durP1;ratioP1;P2;durP2;ratioP2
62574;SDS011;53112;45.602;11.904;2022-07-10T00:00:06;5.95;;;3.50;;
62574;SDS011;53112;45.602;11.904;2022-07-10T00:02:36;7.10;;;4.30;;
62574;SDS011;53112;45.602;11.904;2022-07-10T00:05:03;5.93;;;4.03;;
62574;SDS011;53112;45.602;11.904;2022-07-10T00:07:30;5.20;;;3.50;;
62574;SDS011;53112;45.602;11.904;2022-07-10T00:09:56;6.20;;;3.80;;
62574;SDS011;53112;45.602;11.904;2022-07-10T00:12:22;5.90;;;3.85;;
62574;SDS011;53112;45.602;11.904;2022-07-10T00:14:48;7.80;;;4.35;;
62574;SDS011;53112;45.602;11.904;2022-07-10T00:17:14;8.05;;;4.50;;
62574;SDS011;53112;45.602;11.904;2022-07-10T00:19:40;7.10;;;4.10;;
62574;SDS011;53112;45.602;11.904;2022-07-10T00:22:06;8.43;;;4.68;;
62574;SDS011;53112;45.602;11.904;2022-07-10T00:24:32;6.93;;;4.70;;
62574;SDS011;53112;45.602;11.904;2022-07-10T00:26:58;6.28;;;4.50;;
62574;SDS011;53112;45.602;11.904;2022-07-10T00:29:24;9.32;;;4.85;;
62574;SDS011;53112;45.602;11.904;2022-07-10T00:31:51;6.47;;;3.95;;
62574;SDS011;53112;45.602;11.904;2022-07-10T00:34:17;5.60;;;4.10;;
62574;SDS011;53112;45.602;11.904;2022-07-10T00:36:43;6.90;;;4.13;;
62574;SDS011;53112;45.602;11.904;2022-07-10T00:39:09;7.13;;;4.00;;
62574;SDS011;53112;45.602;11.904;2022-07-10T00:41:35;5.72;;;3.80;;
62574;SDS011;53112;45.602;11.904;2022-07-10T00:44:03;6.60;;;4.07;;
62574;SDS011;53112;45.602;11.904;2022-07-10T00:46:30;7.10;;;4.35;;
62574;SDS011;53112;45.602;11.904;2022-07-10T00:48:57;5.78;;;3.97;;
62574;SDS011;53112;45.602;11.904;2022-07-10T00:51:24;6.18;;;3.95;;
62574;SDS011;53112;45.602;11.904;2022-07-10T00:53:52;7.53;;;4.57;;
62574;SDS011;53112;45.602;11.904;2022-07-10T00:56:19;7.35;;;4.32;;
62574;SDS011;53112;45.602;11.904;2022-07-10T00:58:49;6.43;;;4.22;;
62574;SDS011;53112;45.602;11.904;2022-07-10T01:01:15;6.57;;;4.30;;
62574;SDS011;53112;45.602;11.904;2022-07-10T01:03:43;6.82;;;4.25;;
62574;SDS011;53112;45.602;11.904;2022-07-10T01:06:11;6.30;;;4.35;;
62574;SDS011;53112;45.602;11.904;2022-07-10T01:08:38;6.18;;;4.32;;
62574;SDS011;53112;45.602;11.904;2022-07-10T01:11:04;7.22;;;3.80;;
62574;SDS011;53112;45.602;11.904;2022-07-10T01:13:31;5.43;;;3.72;;
62574;SDS011;53112;45.602;11.904;2022-07-10T01:15:57;6.28;;;4.28;;
62574;SDS011;53112;45.602;11.904;2022-07-10T01:18:26;6.93;;;4.20;;
62574;SDS011;53112;45.602;11.904;2022-07-10T01:20:53;6.57;;;4.25;;
62574;SDS011;53112;45.602;11.904;2022-07-10T01:23:20;5.95;;;3.97;;
62574;SDS011;53112;45.602;11.904;2022-07-10T01:25:47;5.55;;;4.07;;
62574;SDS011;53112;45.602;11.904;2022-07-10T01:28:15;6.43;;;3.92;;
62574;SDS011;53112;45.602;11.904;2022-07-10T01:30:41;6.35;;;4.00;;
62574;SDS011;53112;45.602;11.904;2022-07-10T01:33:08;6.68;;;3.92;;
62574;SDS011;53112;45.602;11.904;2022-07-10T01:35:34;8.73;;;4.07;;
62574;SDS011;53112;45.602;11.904;2022-07-10T01:38:00;6.70;;;3.47;;
62574;SDS011;53112;45.602;11.904;2022-07-10T01:40:25;5.57;;;3.60;;
62574;SDS011;53112;45.602;11.904;2022-07-10T01:42:52;5.85;;;3.55;;
62574;SDS011;53112;45.602;11.904;2022-07-10T01:45:18;5.95;;;3.50;;
62574;SDS011;53112;45.602;11.904;2022-07-10T01:47:44;6.45;;;4.05;;
62574;SDS011;53112;45.602;11.904;2022-07-10T01:50:10;6.93;;;4.13;;
62574;SDS011;53112;45.602;11.904;2022-07-10T01:52:36;5.55;;;3.60;;
62574;SDS011;53112;45.602;11.904;2022-07-10T01:55:02;5.93;;;4.15;;
62574;SDS011;53112;45.602;11.904;2022-07-10T01:57:29;6.18;;;4.15;;
62574;SDS011;53112;45.602;11.904;2022-07-10T01:59:55;5.93;;;4.00;;
62574;SDS011;53112;45.602;11.904;2022-07-10T02:02:22;5.20;;;3.42;;
62574;SDS011;53112;45.602;11.904;2022-07-10T02:04:47;7.32;;;3.80;;
62574;SDS011;53112;45.602;11.904;2022-07-10T02:07:14;6.10;;;3.83;;
62574;SDS011;53112;45.602;11.904;2022-07-10T02:09:42;6.75;;;3.60;;
62574;SDS011;53112;45.602;11.904;2022-07-10T02:12:09;5.57;;;3.38;;
62574;SDS011;53112;45.602;11.904;2022-07-10T02:14:36;5.20;;;3.47;;
62574;SDS011;53112;45.602;11.904;2022-07-10T02:17:03;5.75;;;3.70;;
62574;SDS011;53112;45.602;11.904;2022-07-10T02:19:30;3.95;;;3.17;;
62574;SDS011;53112;45.602;11.904;2022-07-10T02:21:57;6.47;;;3.95;;
62574;SDS011;53112;45.602;11.904;2022-07-10T02:24:23;5.57;;;3.90;;
62574;SDS011;53112;45.602;11.904;2022-07-10T02:26:49;5.72;;;3.70;;
62574;SDS011;53112;45.602;11.904;2022-07-10T02:29:15;4.30;;;3.25;;
62574;SDS011;53112;45.602;11.904;2022-07-10T02:31:42;6.25;;;3.75;;
62574;SDS011;53112;45.602;11.904;2022-07-10T02:34:11;4.70;;;3.40;;
62574;SDS011;53112;45.602;11.904;2022-07-10T02:36:39;5.45;;;3.58;;
62574;SDS011;53112;45.602;11.904;2022-07-10T02:39:06;6.15;;;3.20;;
62574;SDS011;53112;45.602;11.904;2022-07-10T02:41:33;4.18;;;3.20;;
62574;SDS011;53112;45.602;11.904;2022-07-10T02:44:01;5.35;;;2.95;;
62574;SDS011;53112;45.602;11.904;2022-07-10T02:46:28;8.95;;;3.60;;
62574;SDS011;53112;45.602;11.904;2022-07-10T02:48:53;5.60;;;3.53;;
62574;SDS011;53112;45.602;11.904;2022-07-10T02:51:20;4.97;;;3.53;;
62574;SDS011;53112;45.602;11.904;2022-07-10T02:53:45;5.15;;;3.40;;
62574;SDS011;53112;45.602;11.904;2022-07-10T02:56:11;3.85;;;3.08;;
62574;SDS011;53112;45.602;11.904;2022-07-10T02:58:37;4.95;;;3.60;;
62574;SDS011;53112;45.602;11.904;2022-07-10T03:01:05;4.85;;;3.33;;
62574;SDS011;53112;45.602;11.904;2022-07-10T03:03:31;7.50;;;3.92;;
62574;SDS011;53112;45.602;11.904;2022-07-10T03:05:58;5.35;;;3.60;;
62574;SDS011;53112;45.602;11.904;2022-07-10T03:08:24;6.13;;;3.80;;
62574;SDS011;53112;45.602;11.904;2022-07-10T03:10:50;5.05;;;3.45;;
62574;SDS011;53112;45.602;11.904;2022-07-10T03:13:16;4.75;;;3.22;;
62574;SDS011;53112;45.602;11.904;2022-07-10T03:15:42;5.70;;;3.63;;
62574;SDS011;53112;45.602;11.904;2022-07-10T03:18:08;5.30;;;3.40;;
62574;SDS011;53112;45.602;11.904;2022-07-10T03:20:35;5.35;;;3.08;;
62574;SDS011;53112;45.602;11.904;2022-07-10T03:23:01;5.63;;;3.42;;
62574;SDS011;53112;45.602;11.904;2022-07-10T03:25:26;5.05;;;3.70;;
62574;SDS011;53112;45.602;11.904;2022-07-10T03:27:52;6.00;;;3.50;;
62574;SDS011;53112;45.602;11.904;2022-07-10T03:30:18;5.35;;;3.42;;
62574;SDS011;53112;45.602;11.904;2022-07-10T03:32:45;6.43;;;3.80;;
62574;SDS011;53112;45.602;11.904;2022-07-10T03:35:11;3.88;;;3.25;;
62574;SDS011;53112;45.602;11.904;2022-07-10T03:37:37;4.65;;;3.25;;
62574;SDS011;53112;45.602;11.904;2022-07-10T03:40:03;5.25;;;3.35;;
62574;SDS011;53112;45.602;11.904;2022-07-10T03:42:30;4.60;;;3.50;;
62574;SDS011;53112;45.602;11.904;2022-07-10T03:44:56;6.47;;;3.60;;
62574;SDS011;53112;45.602;11.904;2022-07-10T03:47:22;7.68;;;4.05;;
62574;SDS011;53112;45.602;11.904;2022-07-10T03:49:48;5.80;;;3.72;;
62574;SDS011;53112;45.602;11.904;2022-07-10T03:52:15;7.30;;;3.40;;
62574;SDS011;53112;45.602;11.904;2022-07-10T03:54:41;6.82;;;4.38;;
62574;SDS011;53112;45.602;11.904;2022-07-10T03:57:07;5.13;;;3.63;;
62574;SDS011;53112;45.602;11.904;2022-07-10T03:59:51;5.55;;;3.60;;
62574;SDS011;53112;45.602;11.904;2022-07-10T04:02:17;5.47;;;3.40;;
62574;SDS011;53112;45.602;11.904;2022-07-10T04:04:43;5.63;;;4.00;;
62574;SDS011;53112;45.602;11.904;2022-07-10T04:07:09;5.72;;;3.75;;
62574;SDS011;53112;45.602;11.904;2022-07-10T04:09:37;5.55;;;3.50;;
62574;SDS011;53112;45.602;11.904;2022-07-10T04:12:04;4.47;;;3.22;;
62574;SDS011;53112;45.602;11.904;2022-07-10T04:14:31;4.63;;;3.30;;
62574;SDS011;53112;45.602;11.904;2022-07-10T04:16:56;7.07;;;3.35;;
62574;SDS011;53112;45.602;11.904;2022-07-10T04:19:22;6.57;;;4.38;;
62574;SDS011;53112;45.602;11.904;2022-07-10T04:21:49;5.22;;;3.53;;
62574;SDS011;53112;45.602;11.904;2022-07-10T04:24:15;7.82;;;4.70;;
62574;SDS011;53112;45.602;11.904;2022-07-10T04:26:41;7.53;;;4.97;;
62574;SDS011;53112;45.602;11.904;2022-07-10T04:29:07;7.25;;;4.50;;
62574;SDS011;53112;45.602;11.904;2022-07-10T04:31:33;5.32;;;3.90;;
62574;SDS011;53112;45.602;11.904;2022-07-10T04:33:59;4.90;;;3.83;;
62574;SDS011;53112;45.602;11.904;2022-07-10T04:36:25;7.35;;;4.18;;
62574;SDS011;53112;45.602;11.904;2022-07-10T04:38:51;8.32;;;4.93;;
62574;SDS011;53112;45.602;11.904;2022-07-10T04:41:17;8.15;;;5.25;;
62574;SDS011;53112;45.602;11.904;2022-07-10T04:43:43;8.50;;;5.20;;
62574;SDS011;53112;45.602;11.904;2022-07-10T04:46:09;10.32;;;5.00;;
62574;SDS011;53112;45.602;11.904;2022-07-10T04:48:35;9.60;;;5.40;;
62574;SDS011;53112;45.602;11.904;2022-07-10T04:51:02;6.53;;;4.10;;
62574;SDS011;53112;45.602;11.904;2022-07-10T04:53:28;5.70;;;4.40;;
62574;SDS011;53112;45.602;11.904;2022-07-10T04:55:53;7.15;;;4.70;;
62574;SDS011;53112;45.602;11.904;2022-07-10T04:58:19;8.52;;;6.05;;
62574;SDS011;53112;45.602;11.904;2022-07-10T05:00:45;8.30;;;4.82;;
62574;SDS011;53112;45.602;11.904;2022-07-10T05:03:12;8.07;;;5.30;;
62574;SDS011;53112;45.602;11.904;2022-07-10T05:05:41;6.60;;;5.10;;
62574;SDS011;53112;45.602;11.904;2022-07-10T05:08:07;9.05;;;5.10;;
62574;SDS011;53112;45.602;11.904;2022-07-10T05:10:32;8.65;;;5.35;;
62574;SDS011;53112;45.602;11.904;2022-07-10T05:12:59;8.13;;;5.90;;
62574;SDS011;53112;45.602;11.904;2022-07-10T05:15:25;7.75;;;5.40;;
62574;SDS011;53112;45.602;11.904;2022-07-10T05:17:51;9.48;;;6.30;;
62574;SDS011;53112;45.602;11.904;2022-07-10T05:20:16;9.48;;;5.45;;
62574;SDS011;53112;45.602;11.904;2022-07-10T05:22:42;8.70;;;4.55;;
62574;SDS011;53112;45.602;11.904;2022-07-10T05:25:08;10.00;;;5.32;;
62574;SDS011;53112;45.602;11.904;2022-07-10T05:27:34;10.55;;;6.35;;
62574;SDS011;53112;45.602;11.904;2022-07-10T05:30:00;7.47;;;5.00;;
62574;SDS011;53112;45.602;11.904;2022-07-10T05:32:26;7.78;;;5.50;;
62574;SDS011;53112;45.602;11.904;2022-07-10T05:34:52;8.48;;;5.70;;
62574;SDS011;53112;45.602;11.904;2022-07-10T05:37:18;7.93;;;5.70;;
62574;SDS011;53112;45.602;11.904;2022-07-10T05:39:44;9.10;;;5.60;;
62574;SDS011;53112;45.602;11.904;2022-07-10T05:42:10;8.02;;;5.30;;
62574;SDS011;53112;45.602;11.904;2022-07-10T05:44:36;6.88;;;5.07;;
62574;SDS011;53112;45.602;11.904;2022-07-10T05:47:02;8.93;;;5.88;;
62574;SDS011;53112;45.602;11.904;2022-07-10T05:49:28;7.70;;;5.00;;
62574;SDS011;53112;45.602;11.904;2022-07-10T05:51:54;7.85;;;4.88;;
62574;SDS011;53112;45.602;11.904;2022-07-10T05:54:20;7.30;;;5.30;;
62574;SDS011;53112;45.602;11.904;2022-07-10T05:56:46;6.60;;;4.85;;
62574;SDS011;53112;45.602;11.904;2022-07-10T05:59:12;7.00;;;4.90;;
62574;SDS011;53112;45.602;11.904;2022-07-10T06:01:38;7.00;;;4.72;;
62574;SDS011;53112;45.602;11.904;2022-07-10T06:04:04;6.35;;;5.05;;
62574;SDS011;53112;45.602;11.904;2022-07-10T06:06:30;6.50;;;4.60;;
62574;SDS011;53112;45.602;11.904;2022-07-10T06:08:56;5.75;;;4.50;;
62574;SDS011;53112;45.602;11.904;2022-07-10T06:11:24;6.07;;;4.30;;
62574;SDS011;53112;45.602;11.904;2022-07-10T06:13:50;7.90;;;5.20;;
62574;SDS011;53112;45.602;11.904;2022-07-10T06:16:16;10.55;;;4.90;;
62574;SDS011;53112;45.602;11.904;2022-07-10T06:18:42;6.93;;;4.82;;
62574;SDS011;53112;45.602;11.904;2022-07-10T06:21:08;8.55;;;4.85;;
62574;SDS011;53112;45.602;11.904;2022-07-10T06:23:34;9.43;;;4.88;;
62574;SDS011;53112;45.602;11.904;2022-07-10T06:26:00;6.63;;;4.80;;
62574;SDS011;53112;45.602;11.904;2022-07-10T06:28:26;6.10;;;4.55;;
62574;SDS011;53112;45.602;11.904;2022-07-10T06:30:51;6.80;;;4.68;;
62574;SDS011;53112;45.602;11.904;2022-07-10T06:33:17;5.40;;;3.85;;
62574;SDS011;53112;45.602;11.904;2022-07-10T06:35:43;8.25;;;4.13;;
62574;SDS011;53112;45.602;11.904;2022-07-10T06:38:09;6.28;;;4.05;;
62574;SDS011;53112;45.602;11.904;2022-07-10T06:40:36;5.18;;;3.67;;
62574;SDS011;53112;45.602;11.904;2022-07-10T06:43:03;5.18;;;3.42;;
62574;SDS011;53112;45.602;11.904;2022-07-10T06:45:29;5.05;;;3.40;;
62574;SDS011;53112;45.602;11.904;2022-07-10T06:47:55;3.90;;;2.95;;
62574;SDS011;53112;45.602;11.904;2022-07-10T06:50:22;5.40;;;3.28;;
62574;SDS011;53112;45.602;11.904;2022-07-10T06:52:49;4.93;;;3.10;;
62574;SDS011;53112;45.602;11.904;2022-07-10T06:55:17;5.00;;;3.35;;
62574;SDS011;53112;45.602;11.904;2022-07-10T06:57:45;6.75;;;3.28;;
62574;SDS011;53112;45.602;11.904;2022-07-10T07:00:11;5.47;;;3.00;;
62574;SDS011;53112;45.602;11.904;2022-07-10T07:02:37;4.22;;;2.80;;
62574;SDS011;53112;45.602;11.904;2022-07-10T07:05:03;4.72;;;2.67;;
62574;SDS011;53112;45.602;11.904;2022-07-10T07:07:30;4.97;;;2.65;;
62574;SDS011;53112;45.602;11.904;2022-07-10T07:09:56;3.88;;;2.30;;
62574;SDS011;53112;45.602;11.904;2022-07-10T07:12:22;3.60;;;2.40;;
62574;SDS011;53112;45.602;11.904;2022-07-10T07:14:48;3.25;;;2.17;;
62574;SDS011;53112;45.602;11.904;2022-07-10T07:17:14;2.42;;;1.90;;
62574;SDS011;53112;45.602;11.904;2022-07-10T07:19:47;6.45;;;2.60;;
62574;SDS011;53112;45.602;11.904;2022-07-10T07:22:32;5.15;;;2.08;;
62574;SDS011;53112;45.602;11.904;2022-07-10T07:25:17;4.82;;;2.40;;
62574;SDS011;53112;45.602;11.904;2022-07-10T07:27:43;3.85;;;2.30;;
62574;SDS011;53112;45.602;11.904;2022-07-10T07:30:10;4.60;;;2.40;;
62574;SDS011;53112;45.602;11.904;2022-07-10T07:32:41;4.07;;;2.13;;
62574;SDS011;53112;45.602;11.904;2022-07-10T07:35:08;3.28;;;2.10;;
62574;SDS011;53112;45.602;11.904;2022-07-10T07:40:06;2.80;;;1.80;;
62574;SDS011;53112;45.602;11.904;2022-07-10T07:42:35;2.08;;;1.65;;
62574;SDS011;53112;45.602;11.904;2022-07-10T07:45:02;1.73;;;1.63;;
62574;SDS011;53112;45.602;11.904;2022-07-10T07:47:29;4.57;;;1.80;;
62574;SDS011;53112;45.602;11.904;2022-07-10T07:49:56;2.97;;;1.80;;
62574;SDS011;53112;45.602;11.904;2022-07-10T07:52:22;2.88;;;1.77;;
62574;SDS011;53112;45.602;11.904;2022-07-10T07:54:49;2.17;;;1.50;;
62574;SDS011;53112;45.602;11.904;2022-07-10T07:57:16;2.45;;;1.55;;
62574;SDS011;53112;45.602;11.904;2022-07-10T07:59:43;1.60;;;1.50;;
62574;SDS011;53112;45.602;11.904;2022-07-10T08:02:08;3.63;;;1.60;;
62574;SDS011;53112;45.602;11.904;2022-07-10T08:04:34;2.55;;;1.50;;
62574;SDS011;53112;45.602;11.904;2022-07-10T08:07:01;3.88;;;1.60;;
62574;SDS011;53112;45.602;11.904;2022-07-10T08:09:27;3.78;;;1.50;;
62574;SDS011;53112;45.602;11.904;2022-07-10T08:11:53;2.55;;;1.65;;
62574;SDS011;53112;45.602;11.904;2022-07-10T08:14:19;3.53;;;1.80;;
62574;SDS011;53112;45.602;11.904;2022-07-10T08:16:45;2.15;;;1.60;;
62574;SDS011;53112;45.602;11.904;2022-07-10T08:19:11;2.17;;;1.55;;
62574;SDS011;53112;45.602;11.904;2022-07-10T08:21:37;2.50;;;1.55;;
62574;SDS011;53112;45.602;11.904;2022-07-10T08:24:03;2.38;;;1.80;;
62574;SDS011;53112;45.602;11.904;2022-07-10T08:26:29;3.25;;;1.50;;
62574;SDS011;53112;45.602;11.904;2022-07-10T08:28:55;2.13;;;1.50;;
62574;SDS011;53112;45.602;11.904;2022-07-10T08:31:21;5.38;;;1.90;;
62574;SDS011;53112;45.602;11.904;2022-07-10T08:33:47;3.13;;;1.80;;
62574;SDS011;53112;45.602;11.904;2022-07-10T08:36:14;4.50;;;1.50;;
62574;SDS011;53112;45.602;11.904;2022-07-10T08:38:40;2.65;;;1.38;;
62574;SDS011;53112;45.602;11.904;2022-07-10T08:41:06;1.60;;;1.50;;
62574;SDS011;53112;45.602;11.904;2022-07-10T08:43:32;1.50;;;1.40;;
62574;SDS011;53112;45.602;11.904;2022-07-10T08:45:58;2.63;;;1.40;;
62574;SDS011;53112;45.602;11.904;2022-07-10T08:48:24;2.25;;;1.35;;
62574;SDS011;53112;45.602;11.904;2022-07-10T08:50:53;3.25;;;1.70;;
62574;SDS011;53112;45.602;11.904;2022-07-10T08:53:24;1.47;;;1.30;;
62574;SDS011;53112;45.602;11.904;2022-07-10T08:55:59;1.58;;;1.17;;
62574;SDS011;53112;45.602;11.904;2022-07-10T08:58:26;1.65;;;1.27;;
62574;SDS011;53112;45.602;11.904;2022-07-10T09:00:52;1.52;;;1.30;;
62574;SDS011;53112;45.602;11.904;2022-07-10T09:03:19;3.22;;;1.30;;
62574;SDS011;53112;45.602;11.904;2022-07-10T09:05:45;2.60;;;1.10;;
62574;SDS011;53112;45.602;11.904;2022-07-10T09:08:27;2.28;;;1.30;;
62574;SDS011;53112;45.602;11.904;2022-07-10T09:11:13;1.85;;;1.27;;
62574;SDS011;53112;45.602;11.904;2022-07-10T09:13:49;2.55;;;1.20;;
62574;SDS011;53112;45.602;11.904;2022-07-10T09:16:22;2.97;;;1.40;;
62574;SDS011;53112;45.602;11.904;2022-07-10T09:18:53;2.35;;;1.20;;
62574;SDS011;53112;45.602;11.904;2022-07-10T09:21:20;2.65;;;1.38;;
62574;SDS011;53112;45.602;11.904;2022-07-10T09:23:47;2.47;;;1.40;;
62574;SDS011;53112;45.602;11.904;2022-07-10T09:26:13;1.33;;;1.20;;
62574;SDS011;53112;45.602;11.904;2022-07-10T09:28:40;2.13;;;1.40;;
62574;SDS011;53112;45.602;11.904;2022-07-10T09:31:06;2.05;;;1.30;;
62574;SDS011;53112;45.602;11.904;2022-07-10T09:33:32;2.63;;;1.40;;
62574;SDS011;53112;45.602;11.904;2022-07-10T09:36:10;1.33;;;1.30;;
62574;SDS011;53112;45.602;11.904;2022-07-10T09:43:50;2.28;;;1.20;;
62574;SDS011;53112;45.602;11.904;2022-07-10T09:46:26;2.30;;;1.20;;
62574;SDS011;53112;45.602;11.904;2022-07-10T09:49:03;1.42;;;1.30;;
62574;SDS011;53112;45.602;11.904;2022-07-10T09:51:34;3.15;;;1.42;;
62574;SDS011;53112;45.602;11.904;2022-07-10T09:54:02;2.53;;;1.27;;
62574;SDS011;53112;45.602;11.904;2022-07-10T09:56:40;2.95;;;1.35;;
62574;SDS011;53112;45.602;11.904;2022-07-10T09:59:11;1.80;;;1.30;;
62574;SDS011;53112;45.602;11.904;2022-07-10T10:01:50;2.53;;;1.40;;
62574;SDS011;53112;45.602;11.904;2022-07-10T10:04:18;2.35;;;1.17;;
62574;SDS011;53112;45.602;11.904;2022-07-10T10:06:50;1.52;;;1.25;;
62574;SDS011;53112;45.602;11.904;2022-07-10T10:09:26;2.60;;;1.40;;
62574;SDS011;53112;45.602;11.904;2022-07-10T10:11:55;1.60;;;1.37;;
62574;SDS011;53112;45.602;11.904;2022-07-10T10:14:26;1.98;;;1.20;;
62574;SDS011;53112;45.602;11.904;2022-07-10T10:16:54;2.00;;;1.27;;
62574;SDS011;53112;45.602;11.904;2022-07-10T10:19:23;1.30;;;1.10;;
62574;SDS011;53112;45.602;11.904;2022-07-10T10:22:08;1.40;;;1.30;;
62574;SDS011;53112;45.602;11.904;2022-07-10T10:24:34;2.03;;;1.27;;
62574;SDS011;53112;45.602;11.904;2022-07-10T10:27:02;2.08;;;1.40;;
62574;SDS011;53112;45.602;11.904;2022-07-10T10:29:32;1.80;;;1.40;;
62574;SDS011;53112;45.602;11.904;2022-07-10T10:32:02;2.95;;;1.40;;
62574;SDS011;53112;45.602;11.904;2022-07-10T10:34:41;2.53;;;1.35;;
62574;SDS011;53112;45.602;11.904;2022-07-10T10:37:28;2.60;;;1.30;;
62574;SDS011;53112;45.602;11.904;2022-07-10T10:40:08;1.35;;;1.20;;
62574;SDS011;53112;45.602;11.904;2022-07-10T10:42:39;2.00;;;1.25;;
62574;SDS011;53112;45.602;11.904;2022-07-10T10:48:09;2.03;;;1.20;;
62574;SDS011;53112;45.602;11.904;2022-07-10T10:50:39;1.40;;;1.30;;
62574;SDS011;53112;45.602;11.904;2022-07-10T10:58:25;2.47;;;1.30;;
62574;SDS011;53112;45.602;11.904;2022-07-10T11:00:52;2.13;;;1.25;;
62574;SDS011;53112;45.602;11.904;2022-07-10T11:03:28;1.73;;;1.38;;
62574;SDS011;53112;45.602;11.904;2022-07-10T11:05:54;1.60;;;1.50;;
62574;SDS011;53112;45.602;11.904;2022-07-10T11:08:36;2.63;;;1.30;;
62574;SDS011;53112;45.602;11.904;2022-07-10T11:14:06;1.38;;;1.27;;
62574;SDS011;53112;45.602;11.904;2022-07-10T11:16:33;1.75;;;1.20;;
62574;SDS011;53112;45.602;11.904;2022-07-10T11:19:00;1.90;;;1.27;;
62574;SDS011;53112;45.602;11.904;2022-07-10T11:21:28;1.65;;;1.17;;
62574;SDS011;53112;45.602;11.904;2022-07-10T11:24:15;3.08;;;1.30;;
62574;SDS011;53112;45.602;11.904;2022-07-10T11:30:42;1.67;;;1.40;;
62574;SDS011;53112;45.602;11.904;2022-07-10T11:33:13;2.03;;;1.20;;
62574;SDS011;53112;45.602;11.904;2022-07-10T11:35:40;1.55;;;1.25;;
62574;SDS011;53112;45.602;11.904;2022-07-10T11:38:09;2.22;;;1.27;;
62574;SDS011;53112;45.602;11.904;2022-07-10T11:40:38;1.65;;;1.40;;
62574;SDS011;53112;45.602;11.904;2022-07-10T11:43:04;1.67;;;1.25;;
62574;SDS011;53112;45.602;11.904;2022-07-10T11:45:32;2.22;;;1.30;;
62574;SDS011;53112;45.602;11.904;2022-07-10T11:48:03;1.42;;;1.30;;
62574;SDS011;53112;45.602;11.904;2022-07-10T11:50:36;1.88;;;1.30;;
62574;SDS011;53112;45.602;11.904;2022-07-10T11:53:04;2.53;;;1.10;;
62574;SDS011;53112;45.602;11.904;2022-07-10T11:55:30;2.75;;;1.35;;
62574;SDS011;53112;45.602;11.904;2022-07-10T11:58:14;1.20;;;1.10;;
62574;SDS011;53112;45.602;11.904;2022-07-10T12:00:41;1.85;;;1.10;;
62574;SDS011;53112;45.602;11.904;2022-07-10T12:03:18;1.75;;;1.30;;
62574;SDS011;53112;45.602;11.904;2022-07-10T12:05:45;2.05;;;1.30;;
62574;SDS011;53112;45.602;11.904;2022-07-10T12:08:12;1.50;;;1.40;;
62574;SDS011;53112;45.602;11.904;2022-07-10T12:10:39;2.03;;;1.40;;
62574;SDS011;53112;45.602;11.904;2022-07-10T12:13:10;1.70;;;1.30;;
62574;SDS011;53112;45.602;11.904;2022-07-10T12:15:42;3.85;;;1.30;;
62574;SDS011;53112;45.602;11.904;2022-07-10T12:18:19;1.35;;;1.10;;
62574;SDS011;53112;45.602;11.904;2022-07-10T12:20:47;1.55;;;1.30;;
62574;SDS011;53112;45.602;11.904;2022-07-10T12:23:15;2.15;;;1.30;;
62574;SDS011;53112;45.602;11.904;2022-07-10T12:25:46;1.60;;;1.23;;
62574;SDS011;53112;45.602;11.904;2022-07-10T12:28:16;1.30;;;1.17;;
62574;SDS011;53112;45.602;11.904;2022-07-10T12:30:44;1.73;;;1.00;;
62574;SDS011;53112;45.602;11.904;2022-07-10T12:38:16;2.78;;;1.30;;
62574;SDS011;53112;45.602;11.904;2022-07-10T12:40:44;2.08;;;1.30;;
62574;SDS011;53112;45.602;11.904;2022-07-10T12:43:10;2.03;;;1.10;;
62574;SDS011;53112;45.602;11.904;2022-07-10T12:45:39;1.13;;;1.02;;
62574;SDS011;53112;45.602;11.904;2022-07-10T12:48:05;2.03;;;1.20;;
62574;SDS011;53112;45.602;11.904;2022-07-10T12:50:31;1.00;;;1.00;;
62574;SDS011;53112;45.602;11.904;2022-07-10T12:53:10;1.35;;;1.10;;
62574;SDS011;53112;45.602;11.904;2022-07-10T12:55:41;2.05;;;1.13;;
62574;SDS011;53112;45.602;11.904;2022-07-10T12:58:10;1.63;;;1.20;;
62574;SDS011;53112;45.602;11.904;2022-07-10T13:00:45;1.83;;;1.23;;
62574;SDS011;53112;45.602;11.904;2022-07-10T13:03:20;1.27;;;1.17;;
62574;SDS011;53112;45.602;11.904;2022-07-10T13:05:49;3.85;;;1.30;;
62574;SDS011;53112;45.602;11.904;2022-07-10T13:08:17;1.80;;;1.40;;
62574;SDS011;53112;45.602;11.904;2022-07-10T13:10:53;2.60;;;1.30;;
62574;SDS011;53112;45.602;11.904;2022-07-10T13:13:23;3.35;;;1.40;;
62574;SDS011;53112;45.602;11.904;2022-07-10T13:15:50;2.65;;;1.40;;
62574;SDS011;53112;45.602;11.904;2022-07-10T13:18:19;1.42;;;1.30;;
62574;SDS011;53112;45.602;11.904;2022-07-10T13:20:49;2.45;;;1.42;;
62574;SDS011;53112;45.602;11.904;2022-07-10T13:23:18;2.53;;;1.50;;
62574;SDS011;53112;45.602;11.904;2022-07-10T13:25:48;2.83;;;1.50;;
62574;SDS011;53112;45.602;11.904;2022-07-10T13:28:14;1.30;;;1.20;;
62574;SDS011;53112;45.602;11.904;2022-07-10T13:30:44;1.58;;;1.20;;
62574;SDS011;53112;45.602;11.904;2022-07-10T13:33:10;1.40;;;1.20;;
62574;SDS011;53112;45.602;11.904;2022-07-10T13:35:36;1.50;;;1.17;;
62574;SDS011;53112;45.602;11.904;2022-07-10T13:38:03;1.70;;;1.30;;
62574;SDS011;53112;45.602;11.904;2022-07-10T13:40:30;1.25;;;1.15;;
62574;SDS011;53112;45.602;11.904;2022-07-10T13:42:57;1.67;;;1.40;;
62574;SDS011;53112;45.602;11.904;2022-07-10T13:45:24;2.08;;;1.20;;
62574;SDS011;53112;45.602;11.904;2022-07-10T13:47:52;1.15;;;1.10;;
62574;SDS011;53112;45.602;11.904;2022-07-10T13:50:21;2.25;;;1.40;;
62574;SDS011;53112;45.602;11.904;2022-07-10T13:52:48;1.95;;;1.30;;
62574;SDS011;53112;45.602;11.904;2022-07-10T13:55:14;1.60;;;1.30;;
62574;SDS011;53112;45.602;11.904;2022-07-10T13:57:41;2.55;;;1.20;;
62574;SDS011;53112;45.602;11.904;2022-07-10T14:00:08;2.30;;;1.27;;
62574;SDS011;53112;45.602;11.904;2022-07-10T14:02:35;1.30;;;1.20;;
62574;SDS011;53112;45.602;11.904;2022-07-10T14:05:01;1.45;;;1.30;;
62574;SDS011;53112;45.602;11.904;2022-07-10T14:07:27;1.83;;;1.23;;
62574;SDS011;53112;45.602;11.904;2022-07-10T14:09:53;1.30;;;1.20;;
62574;SDS011;53112;45.602;11.904;2022-07-10T14:12:19;2.05;;;1.25;;
62574;SDS011;53112;45.602;11.904;2022-07-10T14:14:46;2.55;;;1.30;;
62574;SDS011;53112;45.602;11.904;2022-07-10T14:17:12;2.08;;;1.30;;
62574;SDS011;53112;45.602;11.904;2022-07-10T14:19:38;2.00;;;1.42;;
62574;SDS011;53112;45.602;11.904;2022-07-10T14:22:06;1.63;;;1.40;;
62574;SDS011;53112;45.602;11.904;2022-07-10T14:24:33;2.60;;;1.20;;
62574;SDS011;53112;45.602;11.904;2022-07-10T14:26:59;1.30;;;1.20;;
62574;SDS011;53112;45.602;11.904;2022-07-10T14:29:25;1.60;;;1.27;;
62574;SDS011;53112;45.602;11.904;2022-07-10T14:31:51;1.75;;;1.30;;
62574;SDS011;53112;45.602;11.904;2022-07-10T14:34:18;2.63;;;1.20;;
62574;SDS011;53112;45.602;11.904;2022-07-10T14:36:44;3.75;;;1.27;;
62574;SDS011;53112;45.602;11.904;2022-07-10T14:39:11;4.90;;;1.48;;
62574;SDS011;53112;45.602;11.904;2022-07-10T14:41:37;2.30;;;1.23;;
62574;SDS011;53112;45.602;11.904;2022-07-10T14:44:04;2.85;;;1.50;;
62574;SDS011;53112;45.602;11.904;2022-07-10T14:46:32;3.10;;;1.33;;
62574;SDS011;53112;45.602;11.904;2022-07-10T14:48:59;3.58;;;1.30;;
62574;SDS011;53112;45.602;11.904;2022-07-10T14:51:25;3.35;;;1.50;;
62574;SDS011;53112;45.602;11.904;2022-07-10T14:53:51;6.80;;;1.48;;
62574;SDS011;53112;45.602;11.904;2022-07-10T14:56:17;2.42;;;1.30;;
62574;SDS011;53112;45.602;11.904;2022-07-10T14:58:45;3.60;;;1.30;;
62574;SDS011;53112;45.602;11.904;2022-07-10T15:01:11;3.17;;;1.30;;
62574;SDS011;53112;45.602;11.904;2022-07-10T15:03:37;2.45;;;1.30;;